Time,TemperatureF,DewpointF,PressureIn,WindDirection,WindDirectionDegrees,WindSpeedMPH,WindSpeedGustMPH,Humidity,HourlyPrecipIn,Conditions,Clouds,dailyrainin,SoftwareType,DateUTC
2013-01-20 00:00:00,41.7,36.3,29.79,WSW,248,14.0,-999.0,81,0.00,,,0.00,Wunderground v.1.15,2013-01-20 05:00:00,
2013-01-20 00:05:00,41.7,36.3,29.79,WSW,248,14.0,-999.0,81,0.00,,,0.00,Wunderground v.1.15,2013-01-20 05:05:00,
2013-01-20 00:10:00,41.7,36.3,29.79,WSW,248,14.0,-999.0,81,0.00,,,0.00,Wunderground v.1.15,2013-01-20 05:10:00,
2013-01-20 00:15:00,41.8,35.8,29.79,West,270,15.0,-999.0,79,0.00,,,0.00,Wunderground v.1.15,2013-01-20 05:15:00,
2013-01-20 00:20:00,41.8,35.8,29.79,West,270,15.0,-999.0,79,0.00,,,0.00,Wunderground v.1.15,2013-01-20 05:20:00,
2013-01-20 00:25:00,41.7,35.3,29.79,West,270,17.0,-999.0,78,0.00,,,0.00,Wunderground v.1.15,2013-01-20 05:25:00,
2013-01-20 00:30:00,41.7,35.3,29.79,West,270,17.0,-999.0,78,0.00,,,0.00,Wunderground v.1.15,2013-01-20 05:30:00,
2013-01-20 00:35:00,41.5,34.8,29.80,West,270,22.0,-999.0,77,0.00,,,0.00,Wunderground v.1.15,2013-01-20 05:35:00,
2013-01-20 00:40:00,41.5,34.8,29.80,West,270,22.0,-999.0,77,0.00,,,0.00,Wunderground v.1.15,2013-01-20 05:40:00,
2013-01-20 00:45:00,40.8,34.1,29.80,West,270,22.0,-999.0,77,0.00,,,0.00,Wunderground v.1.15,2013-01-20 05:45:00,
2013-01-20 00:50:00,40.8,34.1,29.80,West,270,22.0,-999.0,77,0.00,,,0.00,Wunderground v.1.15,2013-01-20 05:50:00,
2013-01-20 00:55:00,40.1,33.8,29.81,West,270,23.0,-999.0,78,0.00,,,0.00,Wunderground v.1.15,2013-01-20 05:55:00,
2013-01-20 01:00:00,40.1,33.8,29.81,West,270,23.0,-999.0,78,0.00,,,0.00,Wunderground v.1.15,2013-01-20 06:00:00,
2013-01-20 01:05:00,39.4,33.7,29.81,West,270,19.0,-999.0,80,0.00,,,0.00,Wunderground v.1.15,2013-01-20 06:05:00,
2013-01-20 01:10:00,39.4,33.7,29.81,West,270,19.0,-999.0,80,0.00,,,0.00,Wunderground v.1.15,2013-01-20 06:10:00,
2013-01-20 01:15:00,39.1,33.1,29.81,West,270,18.0,-999.0,79,0.00,,,0.00,Wunderground v.1.15,2013-01-20 06:15:00,
2013-01-20 01:20:00,39.1,33.1,29.81,West,270,18.0,-999.0,79,0.00,,,0.00,Wunderground v.1.15,2013-01-20 06:20:00,
2013-01-20 01:25:00,39.0,33.0,29.82,West,270,18.0,-999.0,79,0.00,,,0.00,Wunderground v.1.15,2013-01-20 06:25:00,
2013-01-20 01:30:00,39.0,33.0,29.82,West,270,18.0,-999.0,79,0.00,,,0.00,Wunderground v.1.15,2013-01-20 06:30:00,
2013-01-20 01:35:00,38.6,33.0,29.82,West,270,17.0,-999.0,80,0.00,,,0.00,Wunderground v.1.15,2013-01-20 06:35:00,
2013-01-20 01:40:00,38.6,33.0,29.82,West,270,17.0,-999.0,80,0.00,,,0.00,Wunderground v.1.15,2013-01-20 06:40:00,
2013-01-20 01:45:00,38.7,33.1,29.82,West,270,15.0,-999.0,80,0.00,,,0.00,Wunderground v.1.15,2013-01-20 06:45:00,
2013-01-20 01:50:00,38.7,33.1,29.82,West,270,15.0,-999.0,80,0.00,,,0.00,Wunderground v.1.15,2013-01-20 06:50:00,
2013-01-20 01:55:00,38.1,28.8,29.83,West,270,21.0,-999.0,69,0.00,,,0.00,Wunderground v.1.15,2013-01-20 06:55:00,
2013-01-20 02:00:00,38.1,28.8,29.83,West,270,21.0,-999.0,69,0.00,,,0.00,Wunderground v.1.15,2013-01-20 07:00:00,
2013-01-20 02:05:00,37.4,27.1,29.83,West,270,28.0,-999.0,66,0.00,,,0.00,Wunderground v.1.15,2013-01-20 07:05:00,
2013-01-20 02:10:00,37.4,27.1,29.83,West,270,28.0,-999.0,66,0.00,,,0.00,Wunderground v.1.15,2013-01-20 07:10:00,
2013-01-20 02:15:00,36.7,27.8,29.85,West,270,21.0,-999.0,70,0.00,,,0.00,Wunderground v.1.15,2013-01-20 07:15:00,
2013-01-20 02:20:00,36.7,27.8,29.85,West,270,21.0,-999.0,70,0.00,,,0.00,Wunderground v.1.15,2013-01-20 07:20:00,
2013-01-20 02:25:00,36.2,26.3,29.86,West,270,22.0,-999.0,67,0.00,,,0.00,Wunderground v.1.15,2013-01-20 07:25:00,
2013-01-20 02:30:00,36.2,26.3,29.86,West,270,22.0,-999.0,67,0.00,,,0.00,Wunderground v.1.15,2013-01-20 07:30:00,
2013-01-20 02:35:00,35.5,26.7,29.87,West,270,24.0,-999.0,70,0.00,,,0.00,Wunderground v.1.15,2013-01-20 07:35:00,
2013-01-20 02:40:00,35.5,26.7,29.87,West,270,24.0,-999.0,70,0.00,,,0.00,Wunderground v.1.15,2013-01-20 07:40:00,
2013-01-20 02:45:00,34.4,23.1,29.88,West,270,24.0,-999.0,63,0.00,,,0.00,Wunderground v.1.15,2013-01-20 07:45:00,
2013-01-20 02:50:00,34.4,23.1,29.88,West,270,24.0,-999.0,63,0.00,,,0.00,Wunderground v.1.15,2013-01-20 07:50:00,
2013-01-20 02:55:00,33.3,22.4,29.89,West,270,25.0,-999.0,64,0.00,,,0.00,Wunderground v.1.15,2013-01-20 07:55:00,
2013-01-20 03:00:00,33.3,22.4,29.89,West,270,25.0,-999.0,64,0.00,,,0.00,Wunderground v.1.15,2013-01-20 08:00:00,
2013-01-20 03:05:00,32.6,22.1,29.91,West,270,23.0,-999.0,65,0.00,,,0.00,Wunderground v.1.15,2013-01-20 08:05:00,
2013-01-20 03:10:00,32.6,22.1,29.91,West,270,23.0,-999.0,65,0.00,,,0.00,Wunderground v.1.15,2013-01-20 08:10:00,
2013-01-20 03:15:00,31.8,22.4,29.92,West,270,19.0,-999.0,68,0.00,,,0.00,Wunderground v.1.15,2013-01-20 08:15:00,
2013-01-20 03:20:00,31.8,22.4,29.92,West,270,19.0,-999.0,68,0.00,,,0.00,Wunderground v.1.15,2013-01-20 08:20:00,
2013-01-20 03:25:00,30.9,21.9,29.92,West,270,23.0,-999.0,69,0.00,,,0.00,Wunderground v.1.15,2013-01-20 08:25:00,
2013-01-20 03:30:00,30.9,21.9,29.92,West,270,23.0,-999.0,69,0.00,,,0.00,Wunderground v.1.15,2013-01-20 08:30:00,
2013-01-20 03:35:00,30.3,21.3,29.93,West,270,22.0,-999.0,69,0.00,,,0.00,Wunderground v.1.15,2013-01-20 08:35:00,
2013-01-20 03:40:00,30.3,21.3,29.93,West,270,22.0,-999.0,69,0.00,,,0.00,Wunderground v.1.15,2013-01-20 08:40:00,
2013-01-20 03:45:00,29.8,20.9,29.94,West,270,23.0,-999.0,69,0.00,,,0.00,Wunderground v.1.15,2013-01-20 08:45:00,
2013-01-20 03:50:00,29.8,20.9,29.94,West,270,23.0,-999.0,69,0.00,,,0.00,Wunderground v.1.15,2013-01-20 08:50:00,
2013-01-20 03:55:00,29.3,20.4,29.95,West,270,23.0,-999.0,69,0.00,,,0.00,Wunderground v.1.15,2013-01-20 08:55:00,
2013-01-20 04:00:00,29.3,20.4,29.95,West,270,23.0,-999.0,69,0.00,,,0.00,Wunderground v.1.15,2013-01-20 09:00:00,
2013-01-20 04:05:00,28.9,20.3,29.95,West,270,20.0,-999.0,70,0.00,,,0.00,Wunderground v.1.15,2013-01-20 09:05:00,
2013-01-20 04:10:00,28.9,20.3,29.95,West,270,20.0,-999.0,70,0.00,,,0.00,Wunderground v.1.15,2013-01-20 09:10:00,
2013-01-20 04:15:00,28.6,20.1,29.95,West,270,20.0,-999.0,70,0.00,,,0.00,Wunderground v.1.15,2013-01-20 09:15:00,
2013-01-20 04:20:00,28.6,20.1,29.95,West,270,20.0,-999.0,70,0.00,,,0.00,Wunderground v.1.15,2013-01-20 09:20:00,
2013-01-20 04:25:00,28.2,19.0,29.96,West,270,19.0,-999.0,68,0.00,,,0.00,Wunderground v.1.15,2013-01-20 09:25:00,
2013-01-20 04:30:00,28.2,19.0,29.96,West,270,19.0,-999.0,68,0.00,,,0.00,Wunderground v.1.15,2013-01-20 09:30:00,
2013-01-20 04:35:00,27.9,17.3,29.96,West,270,20.0,-999.0,64,0.00,,,0.00,Wunderground v.1.15,2013-01-20 09:35:00,
2013-01-20 04:40:00,27.9,17.3,29.96,West,270,20.0,-999.0,64,0.00,,,0.00,Wunderground v.1.15,2013-01-20 09:40:00,
2013-01-20 04:45:00,27.5,16.2,29.98,West,270,20.0,-999.0,62,0.00,,,0.00,Wunderground v.1.15,2013-01-20 09:45:00,
2013-01-20 04:50:00,27.5,16.2,29.98,West,270,20.0,-999.0,62,0.00,,,0.00,Wunderground v.1.15,2013-01-20 09:50:00,
2013-01-20 04:55:00,27.2,14.4,29.98,WNW,293,19.0,-999.0,58,0.00,,,0.00,Wunderground v.1.15,2013-01-20 09:55:00,
2013-01-20 05:00:00,27.2,14.4,29.98,WNW,293,19.0,-999.0,58,0.00,,,0.00,Wunderground v.1.15,2013-01-20 10:00:00,
2013-01-20 05:05:00,26.8,14.0,29.99,WNW,293,18.0,-999.0,58,0.00,,,0.00,Wunderground v.1.15,2013-01-20 10:05:00,
2013-01-20 05:10:00,26.8,14.0,29.99,WNW,293,18.0,-999.0,58,0.00,,,0.00,Wunderground v.1.15,2013-01-20 10:10:00,
2013-01-20 05:15:00,26.5,15.2,30.00,WNW,293,17.0,-999.0,62,0.00,,,0.00,Wunderground v.1.15,2013-01-20 10:15:00,
2013-01-20 05:20:00,26.5,15.2,30.00,WNW,293,17.0,-999.0,62,0.00,,,0.00,Wunderground v.1.15,2013-01-20 10:20:00,
2013-01-20 05:25:00,26.1,14.8,30.00,WNW,293,15.0,-999.0,62,0.00,,,0.00,Wunderground v.1.15,2013-01-20 10:25:00,
2013-01-20 05:30:00,26.1,14.8,30.00,WNW,293,15.0,-999.0,62,0.00,,,0.00,Wunderground v.1.15,2013-01-20 10:30:00,
2013-01-20 05:35:00,25.8,15.3,30.01,WNW,293,13.0,-999.0,64,0.00,,,0.00,Wunderground v.1.15,2013-01-20 10:35:00,
2013-01-20 05:40:00,25.8,15.3,30.01,WNW,293,13.0,-999.0,64,0.00,,,0.00,Wunderground v.1.15,2013-01-20 10:40:00,
2013-01-20 05:45:00,25.4,15.3,30.02,WNW,293,13.0,-999.0,65,0.00,,,0.00,Wunderground v.1.15,2013-01-20 10:45:00,
2013-01-20 05:50:00,25.4,15.3,30.02,WNW,293,13.0,-999.0,65,0.00,,,0.00,Wunderground v.1.15,2013-01-20 10:50:00,
2013-01-20 05:55:00,25.0,15.6,30.03,WNW,293,12.0,-999.0,67,0.00,,,0.00,Wunderground v.1.15,2013-01-20 10:55:00,
2013-01-20 06:00:00,25.0,15.6,30.03,WNW,293,12.0,-999.0,67,0.00,,,0.00,Wunderground v.1.15,2013-01-20 11:00:00,
2013-01-20 06:05:00,24.6,15.2,30.04,WNW,293,11.0,-999.0,67,0.00,,,0.00,Wunderground v.1.15,2013-01-20 11:05:00,
2013-01-20 06:10:00,24.6,15.2,30.04,WNW,293,11.0,-999.0,67,0.00,,,0.00,Wunderground v.1.15,2013-01-20 11:10:00,
2013-01-20 06:15:00,24.1,14.7,30.05,WNW,293,14.0,-999.0,67,0.00,,,0.00,Wunderground v.1.15,2013-01-20 11:15:00,
2013-01-20 06:20:00,24.1,14.7,30.05,WNW,293,14.0,-999.0,67,0.00,,,0.00,Wunderground v.1.15,2013-01-20 11:20:00,
2013-01-20 06:25:00,23.7,14.7,30.05,WNW,293,12.0,-999.0,68,0.00,,,0.00,Wunderground v.1.15,2013-01-20 11:25:00,
2013-01-20 06:30:00,23.7,14.7,30.05,WNW,293,12.0,-999.0,68,0.00,,,0.00,Wunderground v.1.15,2013-01-20 11:30:00,
2013-01-20 06:35:00,23.3,14.3,30.06,WNW,293,12.0,-999.0,68,0.00,,,0.00,Wunderground v.1.15,2013-01-20 11:35:00,
2013-01-20 06:40:00,23.3,14.3,30.06,WNW,293,12.0,-999.0,68,0.00,,,0.00,Wunderground v.1.15,2013-01-20 11:40:00,
2013-01-20 06:45:00,23.0,14.3,30.07,WNW,293,14.0,-999.0,69,0.00,,,0.00,Wunderground v.1.15,2013-01-20 11:45:00,
2013-01-20 06:50:00,23.0,14.3,30.07,WNW,293,14.0,-999.0,69,0.00,,,0.00,Wunderground v.1.15,2013-01-20 11:50:00,
2013-01-20 06:55:00,22.6,13.6,30.07,WNW,293,15.0,-999.0,68,0.00,,,0.00,Wunderground v.1.15,2013-01-20 11:55:00,
2013-01-20 07:00:00,22.6,13.6,30.07,WNW,293,15.0,-999.0,68,0.00,,,0.00,Wunderground v.1.15,2013-01-20 12:00:00,
2013-01-20 07:05:00,22.4,14.1,30.08,WNW,293,15.0,-999.0,70,0.00,,,0.00,Wunderground v.1.15,2013-01-20 12:05:00,
2013-01-20 07:10:00,22.4,14.1,30.08,WNW,293,15.0,-999.0,70,0.00,,,0.00,Wunderground v.1.15,2013-01-20 12:10:00,
2013-01-20 07:15:00,22.0,13.7,30.09,WNW,293,14.0,-999.0,70,0.00,,,0.00,Wunderground v.1.15,2013-01-20 12:15:00,
2013-01-20 07:20:00,22.0,13.7,30.09,WNW,293,14.0,-999.0,70,0.00,,,0.00,Wunderground v.1.15,2013-01-20 12:20:00,
2013-01-20 07:25:00,21.7,13.4,30.10,WNW,293,14.0,-999.0,70,0.00,,,0.00,Wunderground v.1.15,2013-01-20 12:25:00,
2013-01-20 07:30:00,21.7,13.4,30.10,WNW,293,14.0,-999.0,70,0.00,,,0.00,Wunderground v.1.15,2013-01-20 12:30:00,
2013-01-20 07:35:00,21.3,12.7,30.10,WNW,293,15.0,-999.0,69,0.00,,,0.00,Wunderground v.1.15,2013-01-20 12:35:00,
2013-01-20 07:40:00,21.3,12.7,30.10,WNW,293,15.0,-999.0,69,0.00,,,0.00,Wunderground v.1.15,2013-01-20 12:40:00,
2013-01-20 07:45:00,21.0,13.1,30.11,WNW,293,13.0,-999.0,71,0.00,,,0.00,Wunderground v.1.15,2013-01-20 12:45:00,
2013-01-20 07:50:00,21.0,13.1,30.11,WNW,293,13.0,-999.0,71,0.00,,,0.00,Wunderground v.1.15,2013-01-20 12:50:00,
2013-01-20 07:55:00,20.8,13.2,30.11,WNW,293,13.0,-999.0,72,0.00,,,0.00,Wunderground v.1.15,2013-01-20 12:55:00,
2013-01-20 08:00:00,20.8,13.2,30.11,WNW,293,13.0,-999.0,72,0.00,,,0.00,Wunderground v.1.15,2013-01-20 13:00:00,
2013-01-20 08:05:00,20.8,13.5,30.11,WNW,293,12.0,-999.0,73,0.00,,,0.00,Wunderground v.1.15,2013-01-20 13:05:00,
2013-01-20 08:10:00,20.8,13.5,30.11,WNW,293,12.0,-999.0,73,0.00,,,0.00,Wunderground v.1.15,2013-01-20 13:10:00,
2013-01-20 08:15:00,20.7,13.1,30.12,WNW,293,13.0,-999.0,72,0.00,,,0.00,Wunderground v.1.15,2013-01-20 13:15:00,
2013-01-20 08:20:00,20.7,13.1,30.12,WNW,293,13.0,-999.0,72,0.00,,,0.00,Wunderground v.1.15,2013-01-20 13:20:00,
2013-01-20 08:25:00,20.6,13.0,30.13,WNW,293,12.0,-999.0,72,0.00,,,0.00,Wunderground v.1.15,2013-01-20 13:25:00,
2013-01-20 08:30:00,20.6,13.0,30.13,WNW,293,12.0,-999.0,72,0.00,,,0.00,Wunderground v.1.15,2013-01-20 13:30:00,
2013-01-20 08:35:00,20.6,13.6,30.14,WNW,293,14.0,-999.0,74,0.00,,,0.00,Wunderground v.1.15,2013-01-20 13:35:00,
2013-01-20 08:40:00,20.6,13.6,30.14,WNW,293,14.0,-999.0,74,0.00,,,0.00,Wunderground v.1.15,2013-01-20 13:40:00,
2013-01-20 08:45:00,20.5,12.6,30.15,WNW,293,14.0,-999.0,71,0.00,,,0.00,Wunderground v.1.15,2013-01-20 13:45:00,
2013-01-20 08:50:00,20.5,12.6,30.15,WNW,293,14.0,-999.0,71,0.00,,,0.00,Wunderground v.1.15,2013-01-20 13:50:00,
2013-01-20 08:55:00,20.5,12.9,30.16,WNW,293,16.0,-999.0,72,0.00,,,0.00,Wunderground v.1.15,2013-01-20 13:55:00,
2013-01-20 09:00:00,20.5,12.9,30.16,WNW,293,16.0,-999.0,72,0.00,,,0.00,Wunderground v.1.15,2013-01-20 14:00:00,
2013-01-20 09:05:00,20.8,13.5,30.16,WNW,293,11.0,-999.0,73,0.00,,,0.00,Wunderground v.1.15,2013-01-20 14:05:00,
2013-01-20 09:10:00,20.8,13.5,30.16,WNW,293,11.0,-999.0,73,0.00,,,0.00,Wunderground v.1.15,2013-01-20 14:10:00,
2013-01-20 09:15:00,20.9,13.6,30.18,WNW,293,12.0,-999.0,73,0.00,,,0.00,Wunderground v.1.15,2013-01-20 14:15:00,
2013-01-20 09:20:00,20.9,13.6,30.18,WNW,293,12.0,-999.0,73,0.00,,,0.00,Wunderground v.1.15,2013-01-20 14:20:00,
2013-01-20 09:25:00,20.7,13.4,30.18,WNW,293,14.0,-999.0,73,0.00,,,0.00,Wunderground v.1.15,2013-01-20 14:25:00,
2013-01-20 09:30:00,20.7,13.4,30.18,WNW,293,14.0,-999.0,73,0.00,,,0.00,Wunderground v.1.15,2013-01-20 14:30:00,
2013-01-20 09:35:00,20.8,13.2,30.18,WNW,293,12.0,-999.0,72,0.00,,,0.00,Wunderground v.1.15,2013-01-20 14:35:00,
2013-01-20 09:40:00,20.8,13.2,30.18,WNW,293,12.0,-999.0,72,0.00,,,0.00,Wunderground v.1.15,2013-01-20 14:40:00,
2013-01-20 09:45:00,21.2,14.5,30.19,WNW,293,12.0,-999.0,75,0.00,,,0.00,Wunderground v.1.15,2013-01-20 14:45:00,
2013-01-20 09:50:00,21.2,14.5,30.19,WNW,293,12.0,-999.0,75,0.00,,,0.00,Wunderground v.1.15,2013-01-20 14:50:00,
2013-01-20 09:55:00,21.1,13.8,30.20,WNW,293,13.0,-999.0,73,0.00,,,0.00,Wunderground v.1.15,2013-01-20 14:55:00,
2013-01-20 10:00:00,21.1,13.8,30.20,WNW,293,13.0,-999.0,73,0.00,,,0.00,Wunderground v.1.15,2013-01-20 15:00:00,
2013-01-20 10:05:00,21.2,14.2,30.20,WNW,293,13.0,-999.0,74,0.00,,,0.00,Wunderground v.1.15,2013-01-20 15:05:00,
2013-01-20 10:10:00,21.2,14.2,30.20,WNW,293,13.0,-999.0,74,0.00,,,0.00,Wunderground v.1.15,2013-01-20 15:10:00,
2013-01-20 10:15:00,21.3,14.3,30.21,WNW,293,12.0,-999.0,74,0.00,,,0.00,Wunderground v.1.15,2013-01-20 15:15:00,
2013-01-20 10:20:00,21.3,14.3,30.21,WNW,293,12.0,-999.0,74,0.00,,,0.00,Wunderground v.1.15,2013-01-20 15:20:00,
2013-01-20 10:25:00,21.4,14.7,30.21,WNW,293,11.0,-999.0,75,0.00,,,0.00,Wunderground v.1.15,2013-01-20 15:25:00,
2013-01-20 10:30:00,21.4,14.7,30.21,WNW,293,11.0,-999.0,75,0.00,,,0.00,Wunderground v.1.15,2013-01-20 15:30:00,
2013-01-20 10:35:00,21.3,14.3,30.22,WNW,293,11.0,-999.0,74,0.00,,,0.00,Wunderground v.1.15,2013-01-20 15:35:00,
2013-01-20 10:40:00,21.3,14.3,30.22,WNW,293,11.0,-999.0,74,0.00,,,0.00,Wunderground v.1.15,2013-01-20 15:40:00,
2013-01-20 10:45:00,21.3,14.9,30.22,WNW,293,10.0,-999.0,76,0.00,,,0.00,Wunderground v.1.15,2013-01-20 15:45:00,
2013-01-20 10:50:00,21.3,14.9,30.22,WNW,293,10.0,-999.0,76,0.00,,,0.00,Wunderground v.1.15,2013-01-20 15:50:00,
2013-01-20 10:55:00,21.2,14.5,30.23,WNW,293,11.0,-999.0,75,0.00,,,0.00,Wunderground v.1.15,2013-01-20 15:55:00,
2013-01-20 11:00:00,21.2,14.5,30.23,WNW,293,11.0,-999.0,75,0.00,,,0.00,Wunderground v.1.15,2013-01-20 16:00:00,
2013-01-20 11:05:00,20.8,14.7,30.23,WNW,293,10.0,-999.0,77,0.00,,,0.00,Wunderground v.1.15,2013-01-20 16:05:00,
2013-01-20 11:10:00,20.8,14.7,30.23,WNW,293,10.0,-999.0,77,0.00,,,0.00,Wunderground v.1.15,2013-01-20 16:10:00,
2013-01-20 11:15:00,20.9,15.1,30.22,WNW,293,8.0,-999.0,78,0.00,,,0.00,Wunderground v.1.15,2013-01-20 16:15:00,
2013-01-20 11:20:00,20.9,15.1,30.22,WNW,293,8.0,-999.0,78,0.00,,,0.00,Wunderground v.1.15,2013-01-20 16:20:00,
2013-01-20 11:25:00,21.3,14.9,30.22,NW,315,7.0,-999.0,76,0.00,,,0.00,Wunderground v.1.15,2013-01-20 16:25:00,
2013-01-20 11:30:00,21.3,14.9,30.22,NW,315,7.0,-999.0,76,0.00,,,0.00,Wunderground v.1.15,2013-01-20 16:30:00,
2013-01-20 11:35:00,21.9,15.2,30.22,NW,315,9.0,-999.0,75,0.00,,,0.00,Wunderground v.1.15,2013-01-20 16:35:00,
2013-01-20 11:40:00,21.9,15.2,30.22,NW,315,9.0,-999.0,75,0.00,,,0.00,Wunderground v.1.15,2013-01-20 16:40:00,
2013-01-20 11:45:00,22.3,15.6,30.23,WNW,293,8.0,-999.0,75,0.00,,,0.00,Wunderground v.1.15,2013-01-20 16:45:00,
2013-01-20 11:50:00,22.3,15.6,30.23,WNW,293,8.0,-999.0,75,0.00,,,0.00,Wunderground v.1.15,2013-01-20 16:50:00,
2013-01-20 11:55:00,22.0,15.0,30.22,WNW,293,9.0,-999.0,74,0.00,,,0.00,Wunderground v.1.15,2013-01-20 16:55:00,
2013-01-20 12:00:00,22.0,15.0,30.22,WNW,293,9.0,-999.0,74,0.00,,,0.00,Wunderground v.1.15,2013-01-20 17:00:00,
2013-01-20 12:05:00,22.1,15.4,30.21,WNW,293,8.0,-999.0,75,0.00,,,0.00,Wunderground v.1.15,2013-01-20 17:05:00,
2013-01-20 12:10:00,22.1,15.4,30.21,WNW,293,8.0,-999.0,75,0.00,,,0.00,Wunderground v.1.15,2013-01-20 17:10:00,
2013-01-20 12:15:00,22.0,15.0,30.20,WNW,293,7.0,-999.0,74,0.00,,,0.00,Wunderground v.1.15,2013-01-20 17:15:00,
2013-01-20 12:20:00,22.0,15.0,30.20,WNW,293,7.0,-999.0,74,0.00,,,0.00,Wunderground v.1.15,2013-01-20 17:20:00,
2013-01-20 12:25:00,22.3,15.0,30.20,WNW,293,8.0,-999.0,73,0.00,,,0.00,Wunderground v.1.15,2013-01-20 17:25:00,
2013-01-20 12:30:00,22.3,15.0,30.20,WNW,293,8.0,-999.0,73,0.00,,,0.00,Wunderground v.1.15,2013-01-20 17:30:00,
2013-01-20 12:35:00,23.1,15.7,30.20,WNW,293,9.0,-999.0,73,0.00,,,0.00,Wunderground v.1.15,2013-01-20 17:35:00,
2013-01-20 12:40:00,23.1,15.7,30.20,WNW,293,9.0,-999.0,73,0.00,,,0.00,Wunderground v.1.15,2013-01-20 17:40:00,
2013-01-20 12:45:00,23.4,16.0,30.20,WNW,293,10.0,-999.0,73,0.00,,,0.00,Wunderground v.1.15,2013-01-20 17:45:00,
2013-01-20 12:50:00,23.4,16.0,30.20,WNW,293,10.0,-999.0,73,0.00,,,0.00,Wunderground v.1.15,2013-01-20 17:50:00,
2013-01-20 12:55:00,23.4,15.7,30.20,WNW,293,8.0,-999.0,72,0.00,,,0.00,Wunderground v.1.15,2013-01-20 17:55:00,
2013-01-20 13:00:00,23.4,15.7,30.20,WNW,293,8.0,-999.0,72,0.00,,,0.00,Wunderground v.1.15,2013-01-20 18:00:00,
2013-01-20 13:05:00,23.8,16.1,30.19,WNW,293,10.0,-999.0,72,0.00,,,0.00,Wunderground v.1.15,2013-01-20 18:05:00,
2013-01-20 13:10:00,23.8,16.1,30.19,WNW,293,10.0,-999.0,72,0.00,,,0.00,Wunderground v.1.15,2013-01-20 18:10:00,
2013-01-20 13:15:00,24.0,16.6,30.18,WNW,293,8.0,-999.0,73,0.00,,,0.00,Wunderground v.1.15,2013-01-20 18:15:00,
2013-01-20 13:20:00,24.0,16.6,30.18,WNW,293,8.0,-999.0,73,0.00,,,0.00,Wunderground v.1.15,2013-01-20 18:20:00,
2013-01-20 13:25:00,23.6,15.2,30.18,West,270,8.0,-999.0,70,0.00,,,0.00,Wunderground v.1.15,2013-01-20 18:25:00,
2013-01-20 13:30:00,23.6,15.2,30.18,West,270,8.0,-999.0,70,0.00,,,0.00,Wunderground v.1.15,2013-01-20 18:30:00,
2013-01-20 13:35:00,23.9,15.2,30.17,West,270,7.0,-999.0,69,0.00,,,0.00,Wunderground v.1.15,2013-01-20 18:35:00,
2013-01-20 13:40:00,23.9,15.2,30.17,West,270,7.0,-999.0,69,0.00,,,0.00,Wunderground v.1.15,2013-01-20 18:40:00,
2013-01-20 13:45:00,24.2,16.1,30.18,WNW,293,7.0,-999.0,71,0.00,,,0.00,Wunderground v.1.15,2013-01-20 18:45:00,
2013-01-20 13:50:00,24.2,16.1,30.18,WNW,293,7.0,-999.0,71,0.00,,,0.00,Wunderground v.1.15,2013-01-20 18:50:00,
2013-01-20 13:55:00,24.0,16.0,30.18,WNW,293,8.0,-999.0,71,0.00,,,0.00,Wunderground v.1.15,2013-01-20 18:55:00,
2013-01-20 14:00:00,24.0,16.0,30.18,WNW,293,8.0,-999.0,71,0.00,,,0.00,Wunderground v.1.15,2013-01-20 19:00:00,
2013-01-20 14:05:00,24.3,15.9,30.18,WNW,293,8.0,-999.0,70,0.00,,,0.00,Wunderground v.1.15,2013-01-20 19:05:00,
2013-01-20 14:10:00,24.3,15.9,30.18,WNW,293,8.0,-999.0,70,0.00,,,0.00,Wunderground v.1.15,2013-01-20 19:10:00,
2013-01-20 14:15:00,24.5,16.4,30.17,West,270,8.0,-999.0,71,0.00,,,0.00,Wunderground v.1.15,2013-01-20 19:15:00,
2013-01-20 14:20:00,24.5,16.4,30.17,West,270,8.0,-999.0,71,0.00,,,0.00,Wunderground v.1.15,2013-01-20 19:20:00,
2013-01-20 14:25:00,25.3,16.9,30.18,WNW,293,7.0,-999.0,70,0.00,,,0.00,Wunderground v.1.15,2013-01-20 19:25:00,
2013-01-20 14:30:00,25.3,16.9,30.18,WNW,293,7.0,-999.0,70,0.00,,,0.00,Wunderground v.1.15,2013-01-20 19:30:00,
2013-01-20 14:35:00,25.3,16.5,30.18,WNW,293,8.0,-999.0,69,0.00,,,0.00,Wunderground v.1.15,2013-01-20 19:35:00,
2013-01-20 14:40:00,25.3,16.5,30.18,WNW,293,8.0,-999.0,69,0.00,,,0.00,Wunderground v.1.15,2013-01-20 19:40:00,
2013-01-20 14:45:00,25.4,16.6,30.18,West,270,10.0,-999.0,69,0.00,,,0.00,Wunderground v.1.15,2013-01-20 19:45:00,
2013-01-20 14:50:00,25.4,16.6,30.18,West,270,10.0,-999.0,69,0.00,,,0.00,Wunderground v.1.15,2013-01-20 19:50:00,
2013-01-20 14:55:00,25.4,16.0,30.19,WNW,293,8.0,-999.0,67,0.00,,,0.00,Wunderground v.1.15,2013-01-20 19:55:00,
2013-01-20 15:00:00,25.4,16.0,30.19,WNW,293,8.0,-999.0,67,0.00,,,0.00,Wunderground v.1.15,2013-01-20 20:00:00,
2013-01-20 15:05:00,25.7,16.3,30.18,WNW,293,9.0,-999.0,67,0.00,,,0.00,Wunderground v.1.15,2013-01-20 20:05:00,
2013-01-20 15:10:00,25.7,16.3,30.18,WNW,293,9.0,-999.0,67,0.00,,,0.00,Wunderground v.1.15,2013-01-20 20:10:00,
2013-01-20 15:15:00,25.7,16.6,30.19,West,270,9.0,-999.0,68,0.00,,,0.00,Wunderground v.1.15,2013-01-20 20:15:00,
2013-01-20 15:20:00,25.7,16.6,30.19,West,270,9.0,-999.0,68,0.00,,,0.00,Wunderground v.1.15,2013-01-20 20:20:00,
2013-01-20 15:25:00,25.3,15.9,30.20,WNW,293,8.0,-999.0,67,0.00,,,0.00,Wunderground v.1.15,2013-01-20 20:25:00,
2013-01-20 15:30:00,25.3,15.9,30.20,WNW,293,8.0,-999.0,67,0.00,,,0.00,Wunderground v.1.15,2013-01-20 20:30:00,
2013-01-20 15:35:00,24.9,14.4,30.20,West,270,10.0,-999.0,64,0.00,,,0.00,Wunderground v.1.15,2013-01-20 20:35:00,
2013-01-20 15:40:00,24.9,14.4,30.20,West,270,10.0,-999.0,64,0.00,,,0.00,Wunderground v.1.15,2013-01-20 20:40:00,
2013-01-20 15:45:00,24.7,15.3,30.19,WNW,293,10.0,-999.0,67,0.00,,,0.00,Wunderground v.1.15,2013-01-20 20:45:00,
2013-01-20 15:50:00,24.7,15.3,30.19,WNW,293,10.0,-999.0,67,0.00,,,0.00,Wunderground v.1.15,2013-01-20 20:50:00,
2013-01-20 15:55:00,24.6,15.5,30.19,West,270,8.0,-999.0,68,0.00,,,0.00,Wunderground v.1.15,2013-01-20 20:55:00,
2013-01-20 16:00:00,24.6,15.5,30.19,West,270,8.0,-999.0,68,0.00,,,0.00,Wunderground v.1.15,2013-01-20 21:00:00,
2013-01-20 16:05:00,24.7,15.6,30.19,WNW,293,8.0,-999.0,68,0.00,,,0.00,Wunderground v.1.15,2013-01-20 21:05:00,
2013-01-20 16:10:00,24.7,15.6,30.19,WNW,293,8.0,-999.0,68,0.00,,,0.00,Wunderground v.1.15,2013-01-20 21:10:00,
2013-01-20 16:15:00,24.5,14.1,30.19,West,270,8.0,-999.0,64,0.00,,,0.00,Wunderground v.1.15,2013-01-20 21:15:00,
2013-01-20 16:20:00,24.5,14.1,30.19,West,270,8.0,-999.0,64,0.00,,,0.00,Wunderground v.1.15,2013-01-20 21:20:00,
2013-01-20 16:25:00,24.3,14.9,30.19,West,270,7.0,-999.0,67,0.00,,,0.00,Wunderground v.1.15,2013-01-20 21:25:00,
2013-01-20 16:30:00,24.3,14.9,30.19,West,270,7.0,-999.0,67,0.00,,,0.00,Wunderground v.1.15,2013-01-20 21:30:00,
2013-01-20 16:35:00,24.0,13.9,30.19,WNW,293,8.0,-999.0,65,0.00,,,0.00,Wunderground v.1.15,2013-01-20 21:35:00,
2013-01-20 16:40:00,24.0,13.9,30.19,WNW,293,8.0,-999.0,65,0.00,,,0.00,Wunderground v.1.15,2013-01-20 21:40:00,
2013-01-20 16:45:00,24.0,13.9,30.19,West,270,8.0,-999.0,65,0.00,,,0.00,Wunderground v.1.15,2013-01-20 21:45:00,
2013-01-20 16:50:00,24.0,13.9,30.19,West,270,8.0,-999.0,65,0.00,,,0.00,Wunderground v.1.15,2013-01-20 21:50:00,
2013-01-20 16:55:00,23.8,13.7,30.19,West,270,8.0,-999.0,65,0.00,,,0.00,Wunderground v.1.15,2013-01-20 21:55:00,
2013-01-20 17:00:00,23.8,13.7,30.19,West,270,8.0,-999.0,65,0.00,,,0.00,Wunderground v.1.15,2013-01-20 22:00:00,
2013-01-20 17:05:00,23.7,14.3,30.20,WNW,293,7.0,-999.0,67,0.00,,,0.00,Wunderground v.1.15,2013-01-20 22:05:00,
2013-01-20 17:10:00,23.7,14.3,30.20,WNW,293,7.0,-999.0,67,0.00,,,0.00,Wunderground v.1.15,2013-01-20 22:10:00,
2013-01-20 17:15:00,23.7,14.0,30.20,WNW,293,7.0,-999.0,66,0.00,,,0.00,Wunderground v.1.15,2013-01-20 22:15:00,
2013-01-20 17:20:00,23.7,14.0,30.20,WNW,293,7.0,-999.0,66,0.00,,,0.00,Wunderground v.1.15,2013-01-20 22:20:00,
2013-01-20 17:25:00,23.5,13.8,30.20,WNW,293,7.0,-999.0,66,0.00,,,0.00,Wunderground v.1.15,2013-01-20 22:25:00,
2013-01-20 17:30:00,23.5,13.8,30.20,WNW,293,7.0,-999.0,66,0.00,,,0.00,Wunderground v.1.15,2013-01-20 22:30:00,
2013-01-20 17:35:00,23.4,14.4,30.20,West,270,8.0,-999.0,68,0.00,,,0.00,Wunderground v.1.15,2013-01-20 22:35:00,
2013-01-20 17:40:00,23.4,14.4,30.20,West,270,8.0,-999.0,68,0.00,,,0.00,Wunderground v.1.15,2013-01-20 22:40:00,
2013-01-20 17:45:00,23.2,13.9,30.20,West,270,8.0,-999.0,67,0.00,,,0.00,Wunderground v.1.15,2013-01-20 22:45:00,
2013-01-20 17:50:00,23.2,13.9,30.20,West,270,8.0,-999.0,67,0.00,,,0.00,Wunderground v.1.15,2013-01-20 22:50:00,
2013-01-20 17:55:00,23.3,14.3,30.20,West,270,7.0,-999.0,68,0.00,,,0.00,Wunderground v.1.15,2013-01-20 22:55:00,
2013-01-20 18:00:00,23.3,14.3,30.20,West,270,7.0,-999.0,68,0.00,,,0.00,Wunderground v.1.15,2013-01-20 23:00:00,
2013-01-20 18:05:00,23.2,13.9,30.21,West,270,8.0,-999.0,67,0.00,,,0.00,Wunderground v.1.15,2013-01-20 23:05:00,
2013-01-20 18:10:00,23.2,13.9,30.21,West,270,8.0,-999.0,67,0.00,,,0.00,Wunderground v.1.15,2013-01-20 23:10:00,
2013-01-20 18:15:00,23.2,14.5,30.21,West,270,8.0,-999.0,69,0.00,,,0.00,Wunderground v.1.15,2013-01-20 23:15:00,
2013-01-20 18:20:00,23.2,14.5,30.21,West,270,8.0,-999.0,69,0.00,,,0.00,Wunderground v.1.15,2013-01-20 23:20:00,
2013-01-20 18:25:00,23.1,13.1,30.21,West,270,8.0,-999.0,65,0.00,,,0.00,Wunderground v.1.15,2013-01-20 23:25:00,
2013-01-20 18:30:00,23.1,13.1,30.21,West,270,8.0,-999.0,65,0.00,,,0.00,Wunderground v.1.15,2013-01-20 23:30:00,
2013-01-20 18:35:00,23.0,13.3,30.21,West,270,8.0,-999.0,66,0.00,,,0.00,Wunderground v.1.15,2013-01-20 23:35:00,
2013-01-20 18:40:00,23.0,13.3,30.21,West,270,8.0,-999.0,66,0.00,,,0.00,Wunderground v.1.15,2013-01-20 23:40:00,
2013-01-20 18:45:00,22.9,13.9,30.21,West,270,7.0,-999.0,68,0.00,,,0.00,Wunderground v.1.15,2013-01-20 23:45:00,
2013-01-20 18:50:00,22.9,13.9,30.21,West,270,7.0,-999.0,68,0.00,,,0.00,Wunderground v.1.15,2013-01-20 23:50:00,
2013-01-20 18:55:00,22.9,13.9,30.21,West,270,7.0,-999.0,68,0.00,,,0.00,Wunderground v.1.15,2013-01-20 23:55:00,
2013-01-20 19:00:00,22.9,13.9,30.21,West,270,7.0,-999.0,68,0.00,,,0.00,Wunderground v.1.15,2013-01-21 00:00:00,
2013-01-20 19:05:00,22.8,13.5,30.21,West,270,7.0,-999.0,67,0.00,,,0.00,Wunderground v.1.15,2013-01-21 00:05:00,
2013-01-20 19:10:00,22.8,13.5,30.21,West,270,7.0,-999.0,67,0.00,,,0.00,Wunderground v.1.15,2013-01-21 00:10:00,
2013-01-20 19:15:00,22.7,12.7,30.21,West,270,7.0,-999.0,65,0.00,,,0.00,Wunderground v.1.15,2013-01-21 00:15:00,
2013-01-20 19:20:00,22.7,12.7,30.21,West,270,7.0,-999.0,65,0.00,,,0.00,Wunderground v.1.15,2013-01-21 00:20:00,
2013-01-20 19:25:00,22.7,13.4,30.21,WNW,293,6.0,-999.0,67,0.00,,,0.00,Wunderground v.1.15,2013-01-21 00:25:00,
2013-01-20 19:30:00,22.7,13.4,30.21,WNW,293,6.0,-999.0,67,0.00,,,0.00,Wunderground v.1.15,2013-01-21 00:30:00,
2013-01-20 19:35:00,22.5,12.5,30.20,West,270,7.0,-999.0,65,0.00,,,0.00,Wunderground v.1.15,2013-01-21 00:35:00,
2013-01-20 19:40:00,22.5,12.5,30.20,West,270,7.0,-999.0,65,0.00,,,0.00,Wunderground v.1.15,2013-01-21 00:40:00,
2013-01-20 19:45:00,22.5,12.8,30.20,West,270,6.0,-999.0,66,0.00,,,0.00,Wunderground v.1.15,2013-01-21 00:45:00,
2013-01-20 19:50:00,22.5,12.8,30.20,West,270,6.0,-999.0,66,0.00,,,0.00,Wunderground v.1.15,2013-01-21 00:50:00,
2013-01-20 19:55:00,22.5,13.5,30.20,West,270,5.0,-999.0,68,0.00,,,0.00,Wunderground v.1.15,2013-01-21 00:55:00,
2013-01-20 20:00:00,22.5,13.5,30.20,West,270,5.0,-999.0,68,0.00,,,0.00,Wunderground v.1.15,2013-01-21 01:00:00,
2013-01-20 20:05:00,22.4,14.1,30.20,West,270,4.0,-999.0,70,0.00,,,0.00,Wunderground v.1.15,2013-01-21 01:05:00,
2013-01-20 20:10:00,22.4,14.1,30.20,West,270,4.0,-999.0,70,0.00,,,0.00,Wunderground v.1.15,2013-01-21 01:10:00,
2013-01-20 20:15:00,22.5,14.8,30.20,West,270,5.0,-999.0,72,0.00,,,0.00,Wunderground v.1.15,2013-01-21 01:15:00,
2013-01-20 20:20:00,22.5,14.8,30.20,West,270,5.0,-999.0,72,0.00,,,0.00,Wunderground v.1.15,2013-01-21 01:20:00,
2013-01-20 20:25:00,22.4,14.1,30.20,West,270,6.0,-999.0,70,0.00,,,0.00,Wunderground v.1.15,2013-01-21 01:25:00,
2013-01-20 20:30:00,22.4,14.1,30.20,West,270,6.0,-999.0,70,0.00,,,0.00,Wunderground v.1.15,2013-01-21 01:30:00,
2013-01-20 20:35:00,22.3,13.7,30.20,West,270,7.0,-999.0,69,0.00,,,0.00,Wunderground v.1.15,2013-01-21 01:35:00,
2013-01-20 20:40:00,22.3,13.7,30.20,West,270,7.0,-999.0,69,0.00,,,0.00,Wunderground v.1.15,2013-01-21 01:40:00,
2013-01-20 20:45:00,21.9,12.6,30.20,NW,315,5.0,-999.0,67,0.00,,,0.00,Wunderground v.1.15,2013-01-21 01:45:00,
2013-01-20 20:50:00,21.9,12.6,30.20,NW,315,5.0,-999.0,67,0.00,,,0.00,Wunderground v.1.15,2013-01-21 01:50:00,
2013-01-20 20:55:00,21.6,12.7,30.20,NW,315,4.0,-999.0,68,0.00,,,0.00,Wunderground v.1.15,2013-01-21 01:55:00,
2013-01-20 21:00:00,21.6,12.7,30.20,NW,315,4.0,-999.0,68,0.00,,,0.00,Wunderground v.1.15,2013-01-21 02:00:00,
2013-01-20 21:05:00,21.4,13.1,30.20,NW,315,4.0,-999.0,70,0.00,,,0.00,Wunderground v.1.15,2013-01-21 02:05:00,
2013-01-20 21:10:00,21.4,13.1,30.20,NW,315,4.0,-999.0,70,0.00,,,0.00,Wunderground v.1.15,2013-01-21 02:10:00,
2013-01-20 21:15:00,21.2,12.6,30.19,NW,315,3.0,-999.0,69,0.00,,,0.00,Wunderground v.1.15,2013-01-21 02:15:00,
2013-01-20 21:20:00,21.2,12.6,30.19,NW,315,3.0,-999.0,69,0.00,,,0.00,Wunderground v.1.15,2013-01-21 02:20:00,
2013-01-20 21:25:00,21.0,12.4,30.20,NW,315,4.0,-999.0,69,0.00,,,0.00,Wunderground v.1.15,2013-01-21 02:25:00,
2013-01-20 21:30:00,21.0,12.4,30.20,NW,315,4.0,-999.0,69,0.00,,,0.00,Wunderground v.1.15,2013-01-21 02:30:00,
2013-01-20 21:35:00,20.7,12.1,30.20,NW,315,4.0,-999.0,69,0.00,,,0.00,Wunderground v.1.15,2013-01-21 02:35:00,
2013-01-20 21:40:00,20.7,12.1,30.20,NW,315,4.0,-999.0,69,0.00,,,0.00,Wunderground v.1.15,2013-01-21 02:40:00,
2013-01-20 21:45:00,20.4,11.8,30.19,NW,315,4.0,-999.0,69,0.00,,,0.00,Wunderground v.1.15,2013-01-21 02:45:00,
2013-01-20 21:50:00,20.4,11.8,30.19,NW,315,4.0,-999.0,69,0.00,,,0.00,Wunderground v.1.15,2013-01-21 02:50:00,
2013-01-20 21:55:00,20.2,12.3,30.19,NW,315,3.0,-999.0,71,0.00,,,0.00,Wunderground v.1.15,2013-01-21 02:55:00,
2013-01-20 22:00:00,20.2,12.3,30.19,NW,315,3.0,-999.0,71,0.00,,,0.00,Wunderground v.1.15,2013-01-21 03:00:00,
2013-01-20 22:05:00,20.1,12.2,30.18,NW,315,3.0,-999.0,71,0.00,,,0.00,Wunderground v.1.15,2013-01-21 03:05:00,
2013-01-20 22:10:00,20.1,12.2,30.18,NW,315,3.0,-999.0,71,0.00,,,0.00,Wunderground v.1.15,2013-01-21 03:10:00,
2013-01-20 22:15:00,19.8,12.2,30.18,NNE,23,3.0,-999.0,72,0.00,,,0.00,Wunderground v.1.15,2013-01-21 03:15:00,
2013-01-20 22:20:00,19.8,12.2,30.18,NNE,23,3.0,-999.0,72,0.00,,,0.00,Wunderground v.1.15,2013-01-21 03:20:00,
2013-01-20 22:25:00,19.6,12.0,30.18,NNW,338,3.0,-999.0,72,0.00,,,0.00,Wunderground v.1.15,2013-01-21 03:25:00,
2013-01-20 22:30:00,19.6,12.0,30.18,NNW,338,3.0,-999.0,72,0.00,,,0.00,Wunderground v.1.15,2013-01-21 03:30:00,
2013-01-20 22:35:00,19.5,11.6,30.18,NNW,338,3.0,-999.0,71,0.00,,,0.00,Wunderground v.1.15,2013-01-21 03:35:00,
2013-01-20 22:40:00,19.5,11.6,30.18,NNW,338,3.0,-999.0,71,0.00,,,0.00,Wunderground v.1.15,2013-01-21 03:40:00,
2013-01-20 22:45:00,19.6,12.0,30.18,NNW,338,3.0,-999.0,72,0.00,,,0.00,Wunderground v.1.15,2013-01-21 03:45:00,
2013-01-20 22:50:00,19.6,12.0,30.18,NNW,338,3.0,-999.0,72,0.00,,,0.00,Wunderground v.1.15,2013-01-21 03:50:00,
2013-01-20 22:55:00,19.6,12.0,30.19,NNW,338,3.0,-999.0,72,0.00,,,0.00,Wunderground v.1.15,2013-01-21 03:55:00,
2013-01-20 23:00:00,19.6,12.0,30.19,NNW,338,3.0,-999.0,72,0.00,,,0.00,Wunderground v.1.15,2013-01-21 04:00:00,
2013-01-20 23:05:00,19.6,12.3,30.19,NW,315,2.0,-999.0,73,0.00,,,0.00,Wunderground v.1.15,2013-01-21 04:05:00,
2013-01-20 23:10:00,19.6,12.3,30.19,NW,315,2.0,-999.0,73,0.00,,,0.00,Wunderground v.1.15,2013-01-21 04:10:00,
2013-01-20 23:15:00,19.6,12.0,30.19,NW,315,2.0,-999.0,72,0.00,,,0.00,Wunderground v.1.15,2013-01-21 04:15:00,
2013-01-20 23:20:00,19.6,12.0,30.19,NW,315,2.0,-999.0,72,0.00,,,0.00,Wunderground v.1.15,2013-01-21 04:20:00,
2013-01-20 23:25:00,19.6,11.7,30.18,NW,315,3.0,-999.0,71,0.00,,,0.00,Wunderground v.1.15,2013-01-21 04:25:00,
2013-01-20 23:30:00,19.6,11.7,30.18,NW,315,3.0,-999.0,71,0.00,,,0.00,Wunderground v.1.15,2013-01-21 04:30:00,
2013-01-20 23:35:00,19.5,11.9,30.18,NW,315,2.0,-999.0,72,0.00,,,0.00,Wunderground v.1.15,2013-01-21 04:35:00,
2013-01-20 23:40:00,19.5,11.9,30.18,NW,315,2.0,-999.0,72,0.00,,,0.00,Wunderground v.1.15,2013-01-21 04:40:00,
2013-01-20 23:45:00,19.6,12.3,30.18,NW,315,2.0,-999.0,73,0.00,,,0.00,Wunderground v.1.15,2013-01-21 04:45:00,
2013-01-20 23:50:00,19.6,12.3,30.18,NW,315,2.0,-999.0,73,0.00,,,0.00,Wunderground v.1.15,2013-01-21 04:50:00,
2013-01-20 23:55:00,19.6,12.3,30.18,NW,315,2.0,-999.0,73,0.00,,,0.00,Wunderground v.1.15,2013-01-21 04:55:00,